Time;durP1;ratioP1;P1;durP2;ratioP2;P2;SDS_P1;SDS_P2;PMS_P1;PMS_P2;Temp;Humidity;BMP_temperature;BMP_pressure;BME280_temperature;BME280_humidity;BME280_pressure;Samples;Min_cycle;Max_cycle;Signal;HPM_P1;HPM_P2
2022/05/04 00:01:13;;;;;;;;;29.75;29.75;;;;;14.55;64.12;101714.38;5073179;27;49976;-67
2022/05/04 00:03:39;;;;;;;;;38.00;30.50;;;;;14.55;63.92;101709.09;5073101;28;50038;-65
2022/05/04 00:06:08;;;;;;;;;24.25;22.50;;;;;14.38;64.30;101687.63;5071890;28;50125;-67
2022/05/04 00:08:34;;;;;;;;;30.75;24.50;;;;;14.36;64.34;101686.66;5073157;27;49825;-65
2022/05/04 00:11:00;;;;;;;;;26.50;24.75;;;;;14.42;65.09;101712.31;5072683;28;49627;-67
2022/05/04 00:13:26;;;;;;;;;29.25;28.00;;;;;14.28;64.90;101697.09;5066783;28;49745;-67
2022/05/04 00:15:51;;;;;;;;;33.00;27.00;;;;;14.39;65.39;101710.53;5073156;28;49713;-67
2022/05/04 00:18:17;;;;;;;;;37.50;29.50;;;;;14.37;64.87;101698.13;5072962;28;49609;-66
2022/05/04 00:20:43;;;;;;;;;38.25;30.75;;;;;14.34;65.13;101698.97;5072629;28;51380;-67
2022/05/04 00:23:08;;;;;;;;;28.75;24.50;;;;;14.37;64.89;101687.56;5071712;27;49656;-67
2022/05/04 00:25:33;;;;;;;;;35.00;29.75;;;;;14.35;65.33;101695.44;5072693;28;49802;-64
2022/05/04 00:28:02;;;;;;;;;33.50;29.00;;;;;14.30;65.35;101690.09;5073083;28;49808;-65
2022/05/04 00:30:28;;;;;;;;;39.75;26.50;;;;;14.38;64.88;101694.63;5072599;27;49792;-65
2022/05/04 00:32:54;;;;;;;;;27.75;25.50;;;;;14.29;64.66;101680.38;5072769;27;49826;-64
2022/05/04 00:35:20;;;;;;;;;27.50;27.00;;;;;14.42;64.89;101685.91;5072778;27;49992;-65
2022/05/04 00:37:45;;;;;;;;;26.75;23.50;;;;;14.47;64.46;101678.97;5072702;28;49755;-65
2022/05/04 00:40:10;;;;;;;;;21.50;20.50;;;;;14.51;64.20;101670.28;5072363;27;50510;-65
2022/05/04 00:42:36;;;;;;;;;28.25;27.00;;;;;14.54;63.89;101675.59;5072324;27;49787;-65
2022/05/04 00:45:01;;;;;;;;;29.75;27.50;;;;;14.45;64.33;101678.97;5072569;28;50174;-66
2022/05/04 00:47:27;;;;;;;;;25.00;24.50;;;;;14.39;64.55;101672.66;5072825;28;49897;-67
2022/05/04 00:49:53;;;;;;;;;26.00;24.00;;;;;14.51;64.31;101687.00;5072274;28;50736;-66
2022/05/04 00:52:18;;;;;;;;;26.75;25.50;;;;;14.44;64.12;101665.69;5072459;28;49790;-65
2022/05/04 00:54:49;;;;;;;;;26.75;24.50;;;;;14.50;64.52;101684.34;5072171;28;49918;-66
2022/05/04 00:57:17;;;;;;;;;25.00;23.25;;;;;14.45;64.30;101675.44;5071322;28;50116;-65
2022/05/04 00:59:45;;;;;;;;;28.00;27.75;;;;;14.43;64.04;101662.16;5072246;27;51104;-67
2022/05/04 01:02:10;;;;;;;;;36.75;29.50;;;;;14.54;63.50;101683.53;5072296;28;49860;-67
2022/05/04 01:04:36;;;;;;;;;35.50;32.00;;;;;14.49;63.63;101691.38;5072311;28;49825;-66
2022/05/04 01:07:01;;;;;;;;;26.75;26.75;;;;;14.43;64.05;101688.56;5071101;28;49889;-67
2022/05/04 01:09:26;;;;;;;;;28.25;26.50;;;;;14.30;64.45;101683.91;5071842;27;50476;-66
2022/05/04 01:11:52;;;;;;;;;29.25;27.25;;;;;14.25;64.14;101678.53;5078504;27;49683;-68
2022/05/04 01:14:18;;;;;;;;;27.75;27.00;;;;;14.26;64.54;101704.06;5071981;28;49912;-66
2022/05/04 01:16:48;;;;;;;;;26.50;24.75;;;;;14.20;64.09;101685.47;5072276;28;49963;-67
2022/05/04 01:19:14;;;;;;;;;28.50;27.25;;;;;14.28;64.67;101699.75;5065771;28;49795;-67
2022/05/04 01:21:40;;;;;;;;;33.50;30.25;;;;;14.14;64.72;101682.69;5071760;28;49843;-65
2022/05/04 01:24:07;;;;;;;;;31.00;28.75;;;;;14.16;64.54;101690.66;5071687;27;49779;-68
2022/05/04 01:26:32;;;;;;;;;30.25;29.25;;;;;14.04;64.96;101681.63;5072036;28;50045;-66
2022/05/04 01:28:58;;;;;;;;;31.50;30.00;;;;;14.02;64.82;101685.09;5071635;28;51088;-67
2022/05/04 01:31:23;;;;;;;;;26.25;22.00;;;;;14.15;65.28;101683.59;5071738;27;49846;-67
2022/05/04 01:33:49;;;;;;;;;29.50;29.25;;;;;14.23;65.20;101703.13;5070214;28;50316;-66
2022/05/04 01:36:14;;;;;;;;;26.00;24.50;;;;;14.15;64.96;101692.41;5072038;27;49755;-67
2022/05/04 01:38:39;;;;;;;;;36.00;29.50;;;;;14.18;65.46;101692.44;5071180;27;50569;-67
2022/05/04 01:42:02;;;;;;;;;27.25;24.75;;;;;14.29;65.30;101706.81;5087126;27;49811;-67
2022/05/04 01:43:50;;;;;;;;;32.00;26.25;;;;;14.13;65.00;101673.00;5071497;27;50160;-67
2022/05/04 01:46:15;;;;;;;;;27.00;25.75;;;;;14.22;64.94;101694.31;5071527;28;49760;-66
2022/05/04 01:48:41;;;;;;;;;25.50;21.50;;;;;14.17;65.44;101690.69;5071333;28;49813;-67
2022/05/04 01:51:06;;;;;;;;;31.00;26.00;;;;;14.09;65.14;101673.81;5071407;28;49806;-65
2022/05/04 01:53:31;;;;;;;;;35.75;31.25;;;;;14.07;65.40;101683.41;5071223;28;49824;-67
2022/05/04 01:55:58;;;;;;;;;30.00;29.00;;;;;14.03;65.96;101681.59;5071652;28;49930;-68
2022/05/04 01:58:23;;;;;;;;;33.25;30.50;;;;;14.04;65.78;101683.38;5071230;28;51026;-67
2022/05/04 02:00:48;;;;;;;;;30.50;28.00;;;;;14.04;65.54;101694.81;5071454;28;49758;-67
2022/05/04 02:03:14;;;;;;;;;33.75;30.75;;;;;13.98;65.97;101704.34;5071381;27;49988;-68
2022/05/04 02:05:41;;;;;;;;;34.75;32.00;;;;;13.82;65.98;101673.22;5071266;28;49972;-67
2022/05/04 02:08:06;;;;;;;;;28.50;24.50;;;;;13.75;66.67;101690.66;5071166;27;49989;-66
2022/05/04 02:10:32;;;;;;;;;32.00;28.50;;;;;13.67;66.71;101690.47;5070850;28;49775;-66
2022/05/04 02:12:57;;;;;;;;;32.50;27.25;;;;;13.66;67.27;101696.59;5071382;27;49884;-65
2022/05/04 02:15:23;;;;;;;;;28.25;26.50;;;;;13.12;67.23;101601.22;5071383;28;49940;-65
2022/05/04 02:17:48;;;;;;;;;29.50;29.50;;;;;13.63;67.25;101686.00;5071130;27;49601;-66
2022/05/04 02:20:14;;;;;;;;;32.00;27.25;;;;;13.57;67.23;101671.75;5071036;27;49864;-66
2022/05/04 02:22:39;;;;;;;;;38.25;32.50;;;;;13.61;67.63;101681.53;5070963;28;49839;-66
2022/05/04 02:25:05;;;;;;;;;27.75;27.00;;;;;13.50;67.37;101672.47;5070650;28;49718;-67
2022/05/04 02:27:30;;;;;;;;;40.50;33.75;;;;;13.57;67.36;101690.22;5070711;27;50534;-67
2022/05/04 02:29:56;;;;;;;;;38.25;31.50;;;;;13.53;67.63;101683.09;5070965;28;49789;-67
2022/05/04 02:32:21;;;;;;;;;32.75;29.25;;;;;13.40;67.81;101663.44;5064267;28;49695;-65
2022/05/04 02:40:14;;;;;;;;;31.25;27.00;;;;;13.42;68.22;101674.94;5070543;28;49786;-66
2022/05/04 02:42:39;;;;;;;;;33.00;31.25;;;;;13.52;68.22;101687.50;5070485;27;49899;-65
2022/05/04 02:45:05;;;;;;;;;30.50;29.00;;;;;13.40;67.58;101672.25;5070445;27;49733;-65
2022/05/04 02:47:31;;;;;;;;;29.50;27.00;;;;;13.60;67.78;101685.91;5070299;27;50568;-66
2022/05/04 02:49:56;;;;;;;;;29.25;25.25;;;;;13.53;67.84;101673.44;5070586;28;49622;-65
2022/05/04 02:52:22;;;;;;;;;30.75;29.75;;;;;13.53;67.55;101668.16;5070907;28;50696;-65
2022/05/04 02:54:47;;;;;;;;;33.25;30.00;;;;;13.52;67.56;101679.59;5070612;28;49695;-66
2022/05/04 02:57:12;;;;;;;;;28.00;26.75;;;;;13.42;67.93;101681.13;5070259;28;49839;-65
2022/05/04 02:59:38;;;;;;;;;32.00;27.00;;;;;13.41;68.60;101678.41;5070510;27;49660;-65
2022/05/04 03:04:47;;;;;;;;;33.25;30.50;;;;;13.53;68.22;101685.75;5070501;28;50430;-65
2022/05/04 03:07:12;;;;;;;;;30.50;30.50;;;;;13.53;67.82;101672.56;5070437;28;49687;-64
2022/05/04 03:09:37;;;;;;;;;35.00;33.75;;;;;13.36;67.94;101646.66;5070346;27;49648;-65
2022/05/04 03:12:03;;;;;;;;;30.75;27.00;;;;;13.52;67.63;101676.94;5070609;27;49610;-65
2022/05/04 03:14:29;;;;;;;;;38.25;34.00;;;;;13.40;68.01;101672.25;5070554;28;50029;-65
2022/05/04 03:16:55;;;;;;;;;30.50;30.00;;;;;13.41;68.21;101684.59;5070104;28;49870;-65
2022/05/04 03:19:21;;;;;;;;;40.50;32.25;;;;;13.45;68.04;101669.72;5070194;28;49939;-66
2022/05/04 03:21:48;;;;;;;;;32.50;30.50;;;;;13.41;68.03;101678.41;5070309;28;49747;-66
2022/05/04 03:24:14;;;;;;;;;37.25;33.25;;;;;13.37;68.17;101659.00;5070127;28;50171;-66
2022/05/04 03:26:39;;;;;;;;;36.75;33.00;;;;;13.45;68.28;101664.47;5070198;28;49863;-65
2022/05/04 03:29:05;;;;;;;;;38.00;31.25;;;;;13.62;67.84;101683.31;5070101;28;49862;-66
2022/05/04 03:31:31;;;;;;;;;32.75;29.50;;;;;13.52;67.36;101649.69;5068692;27;49687;-66
2022/05/04 03:33:56;;;;;;;;;33.75;31.25;;;;;13.55;67.52;101652.38;5070197;27;49737;-65
2022/05/04 03:36:22;;;;;;;;;33.25;28.25;;;;;13.66;67.66;101667.59;5069818;28;49751;-66
2022/05/04 03:38:47;;;;;;;;;32.00;30.25;;;;;13.55;67.44;101648.00;5069691;28;49824;-67
2022/05/04 03:41:13;;;;;;;;;32.25;29.75;;;;;13.57;67.45;101654.19;5069827;28;50177;-67
2022/05/04 03:43:38;;;;;;;;;34.25;31.25;;;;;13.57;67.20;101654.19;5070115;28;49826;-65
2022/05/04 03:46:23;;;;;;;;;35.25;33.50;;;;;13.59;66.85;101676.19;5069653;28;50412;-66
2022/05/04 03:48:58;;;;;;;;;38.00;30.25;;;;;13.43;67.26;101656.50;5069821;28;49719;-67
2022/05/04 03:51:24;;;;;;;;;33.00;27.75;;;;;13.40;67.25;101669.59;5069913;28;49705;-65
2022/05/04 03:53:52;;;;;;;;;35.50;31.00;;;;;13.46;67.57;101671.50;5069815;27;49795;-65
2022/05/04 03:56:18;;;;;;;;;35.75;31.50;;;;;13.37;67.72;101666.91;5069553;28;50996;-66
2022/05/04 03:58:43;;;;;;;;;31.00;28.50;;;;;13.31;67.62;101652.69;5073237;27;49820;-67
2022/05/04 04:01:09;;;;;;;;;34.75;32.25;;;;;13.22;67.76;101641.91;5073315;28;50019;-66
2022/05/04 04:03:35;;;;;;;;;34.25;31.50;;;;;13.26;67.63;101660.50;5073427;27;49696;-65
2022/05/04 04:06:01;;;;;;;;;33.50;30.00;;;;;12.99;68.07;101631.66;5073048;28;49881;-67
2022/05/04 04:08:27;;;;;;;;;34.75;30.75;;;;;13.14;68.01;101645.25;5072843;28;49706;-66
2022/05/04 04:10:53;;;;;;;;;38.75;36.00;;;;;13.24;67.78;101661.31;5073007;28;49747;-65
2022/05/04 04:13:18;;;;;;;;;28.00;27.50;;;;;13.28;67.88;101668.44;5073564;27;49751;-65
2022/05/04 04:15:44;;;;;;;;;43.50;31.25;;;;;13.14;67.70;101645.25;5072762;28;50450;-65
2022/05/04 04:18:10;;;;;;;;;37.50;33.00;;;;;13.20;68.05;101673.50;5073035;28;49739;-66
2022/05/04 04:23:31;;;;;;;;;37.50;30.00;;;;;13.09;67.53;101660.03;5029024;28;50182;-66
2022/05/04 04:25:56;;;;;;;;;32.00;28.25;;;;;13.04;68.18;101660.78;5072405;28;50792;-66
2022/05/04 04:28:21;;;;;;;;;41.25;33.00;;;;;13.04;68.24;101664.31;5071211;28;49721;-67
2022/05/04 04:30:47;;;;;;;;;35.00;29.00;;;;;12.98;68.30;101661.53;5072871;28;49575;-65
2022/05/04 04:33:12;;;;;;;;;38.75;31.75;;;;;13.03;68.28;101672.19;5072820;27;49894;-65
2022/05/04 04:35:38;;;;;;;;;28.75;28.00;;;;;12.91;68.25;101654.31;5072499;28;50919;-65
2022/05/04 04:38:03;;;;;;;;;38.50;35.00;;;;;12.84;68.41;101657.66;5077357;27;49668;-67
2022/05/04 04:40:29;;;;;;;;;29.25;27.25;;;;;12.85;68.89;101649.78;5073723;27;49938;-67
2022/05/04 04:42:55;;;;;;;;;37.50;33.50;;;;;12.94;68.52;101679.88;5072684;28;49620;-65
2022/05/04 04:45:21;;;;;;;;;43.25;33.75;;;;;12.80;68.05;101661.94;5072104;27;51106;-65
2022/05/04 04:47:47;;;;;;;;;36.50;33.00;;;;;12.76;68.52;101656.56;5072444;28;49720;-67
2022/05/04 04:50:13;;;;;;;;;40.00;32.75;;;;;12.87;68.84;101674.44;5072577;28;49594;-67
2022/05/04 04:52:39;;;;;;;;;37.25;33.50;;;;;12.93;68.51;101676.31;5072564;28;49880;-67
2022/05/04 04:55:05;;;;;;;;;38.00;33.25;;;;;13.02;68.33;101681.81;5072053;28;49911;-65
2022/05/04 04:57:32;;;;;;;;;34.25;27.25;;;;;12.90;68.32;101673.59;5072574;28;49792;-65
2022/05/04 04:59:57;;;;;;;;;33.75;28.75;;;;;13.01;68.34;101679.16;5072598;28;49662;-64
2022/05/04 05:02:22;;;;;;;;;32.50;29.50;;;;;12.92;67.97;101673.63;5072619;27;50274;-65
2022/05/04 05:04:48;;;;;;;;;32.25;28.00;;;;;12.97;67.72;101686.09;5072001;28;49881;-65
2022/05/04 05:07:13;;;;;;;;;27.50;23.50;;;;;12.89;67.81;101677.09;5072034;28;49873;-65
2022/05/04 05:09:38;;;;;;;;;41.00;33.00;;;;;12.74;68.09;101660.88;5071482;27;50019;-64
2022/05/04 05:12:04;;;;;;;;;30.50;29.25;;;;;12.95;67.66;101690.44;5073150;27;50160;-64
2022/05/04 05:17:13;;;;;;;;;34.00;31.00;;;;;12.82;67.86;101688.31;5072359;28;49932;-64
2022/05/04 05:19:39;;;;;;;;;34.00;33.50;;;;;12.76;67.80;101680.28;5070925;28;50166;-67
2022/05/04 05:22:05;;;;;;;;;33.75;28.00;;;;;12.88;67.33;101680.59;5072109;28;49996;-66
2022/05/04 05:24:30;;;;;;;;;33.75;31.00;;;;;12.82;67.50;101678.66;5071407;28;50668;-65
2022/05/04 05:26:55;;;;;;;;;35.75;29.50;;;;;12.87;67.72;101690.25;5071936;28;49633;-66
2022/05/04 05:29:21;;;;;;;;;33.75;30.00;;;;;13.01;67.61;101685.31;5072080;28;49859;-67
2022/05/04 05:31:46;;;;;;;;;30.25;28.00;;;;;13.11;66.93;101695.22;5070678;28;49809;-65
2022/05/04 05:34:11;;;;;;;;;33.75;29.25;;;;;13.06;67.06;101664.34;5071699;27;51425;-65
2022/05/04 05:36:37;;;;;;;;;39.00;28.25;;;;;13.34;66.45;101705.50;5071829;28;49620;-65
2022/05/04 05:39:03;;;;;;;;;32.75;29.75;;;;;13.43;65.87;101704.00;5071604;28;49798;-65
2022/05/04 05:41:28;;;;;;;;;37.75;30.75;;;;;13.43;65.73;101692.56;5071649;28;49775;-64
2022/05/04 05:43:53;;;;;;;;;39.25;34.50;;;;;13.35;65.24;101679.19;5070011;28;50813;-65
2022/05/04 05:46:19;;;;;;;;;38.75;31.25;;;;;13.49;64.83;101697.06;5071600;28;49737;-67
2022/05/04 05:48:47;;;;;;;;;31.50;30.25;;;;;13.48;64.77;101698.81;5071556;28;50192;-67
2022/05/04 05:51:12;;;;;;;;;35.25;26.25;;;;;13.63;64.33;101707.09;5071779;28;49815;-65
2022/05/04 05:53:38;;;;;;;;;36.75;31.50;;;;;13.67;64.25;101703.66;5071136;27;50805;-65
2022/05/04 05:56:03;;;;;;;;;33.50;29.50;;;;;13.72;63.49;101696.75;5071427;28;49762;-66
2022/05/04 05:58:29;;;;;;;;;36.00;29.50;;;;;13.86;63.33;101702.34;5070079;28;49909;-65
2022/05/04 06:00:54;;;;;;;;;34.25;29.50;;;;;13.96;62.87;101716.63;5071546;28;49779;-64
2022/05/04 06:03:20;;;;;;;;;37.50;30.75;;;;;13.85;62.65;101707.59;5071261;27;50567;-65
2022/05/04 06:05:45;;;;;;;;;29.50;24.50;;;;;14.07;62.31;101724.78;5071169;28;50030;-65
2022/05/04 06:08:11;;;;;;;;;30.50;29.25;;;;;14.01;61.75;101707.06;5071040;28;49821;-65
2022/05/04 06:10:37;;;;;;;;;33.75;32.00;;;;;13.94;62.34;101686.66;5071506;28;49856;-65
2022/05/04 06:13:02;;;;;;;;;33.75;32.25;;;;;14.03;61.52;101689.50;5071913;27;50903;-65
2022/05/04 06:15:28;;;;;;;;;32.50;28.75;;;;;14.09;60.99;101705.50;5071308;28;49972;-66
2022/05/04 06:17:53;;;;;;;;;35.25;30.75;;;;;14.15;61.43;101707.34;5071081;27;49765;-65
2022/05/04 06:20:19;;;;;;;;;36.00;32.00;;;;;14.08;61.39;101701.03;5070273;28;49733;-67
2022/05/04 06:22:44;;;;;;;;;25.00;24.75;;;;;14.26;61.34;101735.78;5070699;28;50715;-65
2022/05/04 06:25:10;;;;;;;;;35.50;31.50;;;;;14.28;60.62;101730.50;5070840;28;49640;-65
2022/05/04 06:27:35;;;;;;;;;30.75;30.75;;;;;14.29;60.32;101721.75;5071137;28;49681;-66
2022/05/04 06:35:29;;;;;;;;;34.25;30.50;;;;;14.82;59.59;101743.97;5070707;28;49687;-65
2022/05/04 06:37:55;;;;;;;;;30.75;26.50;;;;;14.87;59.24;101742.34;5070829;28;49843;-66
2022/05/04 06:40:20;;;;;;;;;37.50;30.75;;;;;14.92;58.25;101730.94;5070749;28;50022;-65
2022/05/04 06:42:46;;;;;;;;;36.50;30.25;;;;;14.84;58.17;101726.38;5070082;28;50419;-64
2022/05/04 06:45:12;;;;;;;;;34.75;30.50;;;;;14.81;58.35;101726.34;5070493;28;49867;-64
2022/05/04 06:47:37;;;;;;;;;32.25;29.00;;;;;14.92;58.42;101726.53;5070924;28;49992;-64
2022/05/04 06:50:03;;;;;;;;;36.50;31.75;;;;;14.92;57.59;101717.72;5070900;28;49950;-64
2022/05/04 06:52:31;;;;;;;;;33.50;29.00;;;;;14.86;58.19;101698.25;5070405;27;49894;-65
2022/05/04 06:54:56;;;;;;;;;36.75;32.00;;;;;14.93;57.55;101703.63;5068714;28;50083;-65
2022/05/04 06:57:21;;;;;;;;;30.75;30.25;;;;;14.99;58.30;101677.31;5070633;27;50056;-64
2022/05/04 06:59:47;;;;;;;;;35.75;32.50;;;;;15.34;56.89;101714.91;5069142;28;49741;-66
2022/05/04 07:02:12;;;;;;;;;33.25;30.00;;;;;15.43;56.96;101715.94;5069114;28;51395;-65
2022/05/04 07:04:37;;;;;;;;;32.00;29.25;;;;;15.43;56.69;101694.78;5070428;28;49887;-64
2022/05/04 07:07:04;;;;;;;;;28.50;28.50;;;;;15.46;55.84;101717.78;5070543;28;50021;-65
2022/05/04 07:09:29;;;;;;;;;34.00;31.25;;;;;15.48;56.41;101705.47;5063688;27;49692;-64
2022/05/04 07:11:54;;;;;;;;;36.00;29.75;;;;;15.58;55.31;101725.03;5071302;27;50588;-64
2022/05/04 07:14:20;;;;;;;;;31.50;26.75;;;;;15.44;56.01;101690.38;5070185;28;49743;-65
2022/05/04 07:16:47;;;;;;;;;27.25;25.50;;;;;15.69;56.15;101712.88;5070120;28;49767;-63
2022/05/04 07:19:13;;;;;;;;;32.00;29.50;;;;;15.91;55.03;101729.94;5070510;28;50125;-62
2022/05/04 07:21:39;;;;;;;;;35.00;27.50;;;;;15.95;55.23;101723.84;5070124;28;51003;-63
2022/05/04 07:24:05;;;;;;;;;39.00;34.00;;;;;15.93;54.74;101707.94;5069829;28;49779;-62
2022/05/04 07:26:31;;;;;;;;;35.25;32.00;;;;;15.97;55.12;101715.03;5070157;28;49715;-63
2022/05/04 07:28:56;;;;;;;;;31.75;27.25;;;;;15.98;54.93;101737.13;5070177;28;49688;-63
2022/05/04 07:31:22;;;;;;;;;38.50;34.75;;;;;16.01;54.90;101745.09;5069847;28;50526;-64
2022/05/04 07:33:47;;;;;;;;;35.50;32.50;;;;;16.07;55.08;101747.84;5073469;28;49893;-64
2022/05/04 07:36:12;;;;;;;;;38.25;33.75;;;;;16.03;54.73;101738.97;5073718;28;49744;-65
2022/05/04 07:38:38;;;;;;;;;35.25;31.50;;;;;15.99;54.81;101737.13;5073771;28;49946;-68
2022/05/04 07:43:47;;;;;;;;;33.00;30.50;;;;;15.84;54.92;101754.59;5073584;28;50027;-64
2022/05/04 07:46:13;;;;;;;;;33.50;27.00;;;;;15.90;55.29;101754.66;5073440;28;49799;-65
2022/05/04 07:48:38;;;;;;;;;39.50;31.75;;;;;15.76;54.67;101738.56;5073683;28;49879;-64
2022/05/04 07:51:03;;;;;;;;;41.50;34.50;;;;;15.82;54.94;101736.00;5073348;28;49633;-66
2022/05/04 07:53:29;;;;;;;;;36.00;31.75;;;;;15.84;55.11;101741.34;5073350;28;49993;-64
2022/05/04 07:55:54;;;;;;;;;36.25;32.00;;;;;15.85;54.99;101740.47;5073303;28;50092;-64
2022/05/04 07:58:19;;;;;;;;;35.50;31.00;;;;;15.92;55.41;101756.47;5073520;27;49736;-62
2022/05/04 08:06:23;;;;;;;;;30.50;29.50;;;;;15.86;54.47;101740.50;5072853;28;49542;-66
2022/05/04 08:08:49;;;;;;;;;31.75;30.75;;;;;15.85;54.98;101746.66;5072963;27;50072;-65
2022/05/04 08:11:14;;;;;;;;;30.50;29.00;;;;;15.87;55.12;101738.72;5073007;27;50071;-64
2022/05/04 08:13:39;;;;;;;;;39.25;34.25;;;;;15.97;54.59;101738.88;5071708;28;49807;-68
2022/05/04 08:16:07;;;;;;;;;36.25;32.75;;;;;16.12;55.19;101762.06;5073204;28;49794;-64
2022/05/04 08:18:32;;;;;;;;;34.75;30.75;;;;;16.22;54.56;101757.78;5073113;28;49906;-64
2022/05/04 08:20:58;;;;;;;;;32.50;29.00;;;;;16.25;54.44;101761.34;5072907;28;49774;-65
2022/05/04 08:23:24;;;;;;;;;34.50;32.00;;;;;16.36;53.91;101777.38;5072553;28;49803;-65
2022/05/04 08:25:50;;;;;;;;;27.00;25.25;;;;;16.47;54.02;101766.91;5071537;28;50631;-64
2022/05/04 08:28:15;;;;;;;;;37.00;32.00;;;;;16.60;53.73;101767.09;5073062;28;49698;-65
2022/05/04 08:30:41;;;;;;;;;33.50;31.75;;;;;16.63;52.89;101760.94;5072697;28;49772;-64
2022/05/04 08:33:06;;;;;;;;;30.25;29.75;;;;;16.73;53.13;101757.56;5072916;28;49970;-69
2022/05/04 08:35:32;;;;;;;;;31.75;31.25;;;;;16.94;53.06;101775.47;5072837;28;49890;-67
2022/05/04 08:37:58;;;;;;;;;35.75;31.50;;;;;16.90;52.89;101756.88;5072866;27;49652;-69
2022/05/04 08:40:24;;;;;;;;;35.00;30.75;;;;;16.98;51.88;101766.66;5072393;28;49696;-67
2022/05/04 08:42:52;;;;;;;;;37.50;30.00;;;;;17.07;52.00;101752.59;5071690;28;49752;-69
2022/05/04 08:45:17;;;;;;;;;34.00;27.50;;;;;17.39;51.94;101766.19;5071617;28;49709;-66
2022/05/04 08:47:45;;;;;;;;;36.00;32.00;;;;;17.58;50.99;101772.53;5072140;28;49780;-69
2022/05/04 08:50:17;;;;;;;;;32.25;29.75;;;;;17.56;50.37;101768.97;5072112;27;49857;-67
2022/05/04 08:52:53;;;;;;;;;42.25;34.75;;;;;17.67;50.44;101762.00;5071144;27;49864;-69
2022/05/04 08:55:20;;;;;;;;;41.25;33.75;;;;;17.77;50.23;101769.19;5072147;28;50261;-66
2022/05/04 08:57:46;;;;;;;;;33.50;31.25;;;;;17.93;50.28;101770.16;5072454;28;49824;-66
2022/05/04 09:00:12;;;;;;;;;40.75;33.00;;;;;18.03;49.96;101762.25;5072091;28;50453;-66
2022/05/04 09:02:39;;;;;;;;;42.00;32.25;;;;;18.22;49.11;101773.00;5072535;28;49850;-67
2022/05/04 09:05:22;;;;;;;;;40.00;34.75;;;;;18.22;49.27;101767.69;5072200;28;49749;-64
2022/05/04 09:07:50;;;;;;;;;42.25;36.75;;;;;18.50;48.53;101769.59;5072417;28;49811;-64
2022/05/04 09:10:22;;;;;;;;;40.75;33.75;;;;;18.51;48.25;101767.81;5071860;28;49952;-65
2022/05/04 09:12:51;;;;;;;;;45.50;34.00;;;;;18.75;48.49;101772.38;5071948;28;49794;-65
2022/05/04 09:15:24;;;;;;;;;41.50;34.75;;;;;18.93;48.34;101774.22;5072053;28;49934;-64
2022/05/04 09:18:06;;;;;;;;;36.00;31.00;;;;;19.11;47.96;101769.81;5071954;28;50205;-64
2022/05/04 09:20:49;;;;;;;;;44.25;35.25;;;;;19.25;46.55;101768.94;5071664;28;50672;-66
2022/05/04 09:23:16;;;;;;;;;37.25;30.25;;;;;19.42;47.13;101768.06;5071543;27;49794;-65
2022/05/04 09:25:42;;;;;;;;;42.25;34.25;;;;;19.48;46.16;101764.50;5070451;28;49833;-67
2022/05/04 09:28:13;;;;;;;;;40.50;35.00;;;;;19.41;46.08;101760.09;5072319;28;49677;-67
2022/05/04 09:30:45;;;;;;;;;42.00;33.00;;;;;19.34;46.41;101759.19;5071657;28;50025;-72
2022/05/04 09:33:37;;;;;;;;;40.00;34.00;;;;;19.08;46.25;101752.94;5070431;28;49794;-71
2022/05/04 09:36:05;;;;;;;;;43.75;37.25;;;;;18.83;47.47;101744.94;5065103;28;49950;-70
2022/05/04 09:46:52;;;;;;;;;36.25;33.25;;;;;18.42;48.21;101743.84;5067292;28;49863;-68
2022/05/04 09:49:28;;;;;;;;;33.25;32.75;;;;;18.46;48.12;101740.34;5071737;28;49735;-67
2022/05/04 09:51:54;;;;;;;;;39.00;33.25;;;;;18.41;48.64;101744.72;5070926;27;50837;-64
2022/05/04 09:54:21;;;;;;;;;30.00;28.25;;;;;18.43;48.54;101745.63;5070679;28;49663;-63
2022/05/04 09:56:54;;;;;;;;;28.25;28.25;;;;;18.38;48.89;101747.38;5071145;28;49866;-64
2022/05/04 09:59:26;;;;;;;;;43.50;36.00;;;;;18.12;49.02;101752.56;5071523;28;49823;-64
2022/05/04 10:01:53;;;;;;;;;30.75;30.00;;;;;17.91;48.73;101754.22;5071206;27;50790;-64
2022/05/04 10:04:20;;;;;;;;;32.75;32.25;;;;;17.82;49.45;101748.84;5071195;28;49759;-63
2022/05/04 10:06:48;;;;;;;;;30.75;27.50;;;;;17.58;49.38;101712.38;5071183;28;50105;-66
2022/05/04 10:09:13;;;;;;;;;33.75;29.25;;;;;17.67;50.18;101735.44;5070921;28;50270;-65
2022/05/04 10:11:39;;;;;;;;;30.75;28.50;;;;;17.26;50.12;101677.59;5070830;28;50784;-65
2022/05/04 10:14:10;;;;;;;;;31.50;29.25;;;;;17.57;50.43;101722.97;5071094;27;49815;-65
2022/05/04 10:16:44;;;;;;;;;29.00;26.25;;;;;17.76;50.40;101739.94;5071194;28;49800;-66
2022/05/04 10:19:18;;;;;;;;;29.25;25.50;;;;;17.70;49.90;101739.03;5071371;28;49936;-65
2022/05/04 10:21:48;;;;;;;;;28.00;25.00;;;;;17.56;50.48;101721.16;5070916;27;50459;-69
2022/05/04 10:24:16;;;;;;;;;33.25;29.00;;;;;17.53;50.02;101724.69;5070679;27;49743;-68
2022/05/04 10:26:42;;;;;;;;;27.00;25.00;;;;;17.61;49.39;101740.69;5070840;28;49738;-68
2022/05/04 10:32:34;;;;;;;;;22.00;22.00;;;;;17.48;47.95;101721.13;5066989;28;49778;-69
2022/05/04 10:35:20;;;;;;;;;19.00;18.00;;;;;17.65;46.55;101748.69;5070583;28;49671;-69
2022/05/04 10:37:57;;;;;;;;;20.50;17.25;;;;;17.61;46.89;101746.88;5069158;28;49692;-67
2022/05/04 10:40:47;;;;;;;;;21.25;19.00;;;;;17.59;46.13;101727.41;5069420;28;49791;-72
2022/05/04 10:43:17;;;;;;;;;20.25;13.75;;;;;17.72;46.22;101736.38;5048886;28;50390;-69
2022/05/04 10:45:46;;;;;;;;;16.00;13.75;;;;;17.74;45.07;101724.00;5069200;27;49902;-70
2022/05/04 10:48:20;;;;;;;;;20.00;16.75;;;;;17.93;45.26;101751.56;5070531;28;49687;-67
2022/05/04 10:50:55;;;;;;;;;11.25;8.00;;;;;17.99;45.40;101754.28;5052535;28;49766;-67
2022/05/04 10:53:34;;;;;;;;;10.25;9.00;;;;;17.69;45.04;101672.59;5070391;28;50646;-74
2022/05/04 10:56:00;;;;;;;;;14.50;14.50;;;;;18.26;44.46;101761.53;5052280;28;50095;-72
2022/05/04 10:58:51;;;;;;;;;14.25;13.50;;;;;18.23;45.37;101727.81;5070510;28;49756;-69
2022/05/04 11:01:18;;;;;;;;;14.25;11.25;;;;;18.39;44.69;101751.81;5052330;28;49976;-70
2022/05/04 11:03:50;;;;;;;;;21.00;17.75;;;;;18.45;44.91;101747.44;5070114;28;50818;-71
2022/05/04 11:06:27;;;;;;;;;17.00;13.75;;;;;18.49;44.92;101732.38;5069557;28;49751;-70
2022/05/04 11:08:55;;;;;;;;;11.75;11.75;;;;;18.65;45.32;101720.94;5064106;28;49837;-81
2022/05/04 11:11:22;;;;;;;;;17.25;15.50;;;;;18.53;44.79;101705.81;5070731;28;49901;-77
2022/05/04 11:13:47;;;;;;;;;18.00;15.25;;;;;18.67;44.48;101712.97;5070058;28;50977;-79
2022/05/04 11:16:13;;;;;;;;;13.00;11.00;;;;;18.74;43.29;101723.63;5070084;28;49658;-80
2022/05/04 11:18:38;;;;;;;;;11.25;11.25;;;;;18.61;43.67;101700.47;5070089;28;49710;-78
2022/05/04 11:21:10;;;;;;;;;8.50;8.50;;;;;18.56;43.43;101683.66;5070313;28;49941;-76
2022/05/04 11:23:37;;;;;;;;;14.50;13.50;;;;;18.81;43.72;101725.38;5051356;28;50728;-80
2022/05/04 11:26:03;;;;;;;;;14.00;14.00;;;;;18.84;44.16;101727.19;5069527;28;49806;-76
2022/05/04 11:28:28;;;;;;;;;13.00;12.00;;;;;18.82;43.76;101705.91;5070018;28;49533;-78
2022/05/04 11:30:54;;;;;;;;;8.25;8.25;;;;;18.68;43.19;101674.84;5070230;28;50042;-81
2022/05/04 11:33:21;;;;;;;;;9.00;9.00;;;;;18.93;43.11;101718.34;5051565;28;52355;-80
2022/05/04 11:35:54;;;;;;;;;10.75;10.75;;;;;18.91;43.28;101686.38;5069792;28;49927;-79
2022/05/04 11:38:20;;;;;;;;;13.25;13.00;;;;;19.14;43.53;101715.69;5069525;28;49901;-80
2022/05/04 11:40:47;;;;;;;;;9.25;7.00;;;;;19.10;43.50;101692.63;5070005;28;49666;-81
2022/05/04 11:43:22;;;;;;;;;11.75;9.00;;;;;19.16;43.34;101692.63;5069367;28;50560;-81
2022/05/04 11:45:49;;;;;;;;;11.25;9.75;;;;;19.36;42.57;101716.59;5062836;28;49653;-77
2022/05/04 11:48:17;;;;;;;;;10.25;9.50;;;;;19.15;42.19;101681.09;5069984;28;49980;-77